createdAt,value
2018-06-17T00:00:33.839Z,11.43
2018-06-17T00:03:02.536Z,10.77
2018-06-17T00:05:31.238Z,10.60
2018-06-17T00:08:00.059Z,10.80
2018-06-17T00:10:28.798Z,10.10
2018-06-17T00:12:57.499Z,9.90
2018-06-17T00:15:45.262Z,10.23
2018-06-17T00:21:07.845Z,9.33
2018-06-17T00:23:36.480Z,8.97
2018-06-17T00:26:05.231Z,9.77
2018-06-17T00:28:33.910Z,9.30
2018-06-17T00:31:02.558Z,9.40
2018-06-17T00:33:31.276Z,8.50
2018-06-17T00:35:59.964Z,8.17
2018-06-17T00:38:28.859Z,8.30
2018-06-17T00:40:57.521Z,7.80
2018-06-17T00:43:26.356Z,8.73
2018-06-17T00:45:55.694Z,7.97
2018-06-17T00:48:29.317Z,7.83
2018-06-17T00:50:58.675Z,7.73
2018-06-17T00:53:30.266Z,8.13
2018-06-17T00:56:00.070Z,7.43
2018-06-17T00:58:31.640Z,7.50
2018-06-17T01:01:01.282Z,6.40
2018-06-17T01:03:32.536Z,7.40
2018-06-17T01:06:01.904Z,6.80
2018-06-17T01:08:31.769Z,6.53
2018-06-17T01:11:02.865Z,6.97
2018-06-17T01:13:33.022Z,6.90
2018-06-17T01:16:03.053Z,5.90
2018-06-17T01:19:21.774Z,7.27
2018-06-17T01:21:50.671Z,7.27
2018-06-17T01:24:20.979Z,6.23
2018-06-17T01:26:50.007Z,7.43
2018-06-17T01:29:18.850Z,7.60
2018-06-17T01:31:48.310Z,6.53
2018-06-17T01:34:18.200Z,6.70
2018-06-17T01:36:47.347Z,6.87
2018-06-17T01:39:16.304Z,6.83
2018-06-17T01:41:45.644Z,6.80
2018-06-17T01:44:14.721Z,6.43
2018-06-17T01:46:43.801Z,6.00
2018-06-17T01:49:12.717Z,6.33
2018-06-17T01:51:41.694Z,5.87
2018-06-17T01:54:10.707Z,6.20
2018-06-17T01:56:39.575Z,6.03
2018-06-17T01:59:08.547Z,5.97
2018-06-17T02:01:37.642Z,6.13
2018-06-17T02:04:11.655Z,5.70
2018-06-17T02:06:45.853Z,6.40
2018-06-17T02:09:19.932Z,6.53
2018-06-17T02:11:53.845Z,6.03
2018-06-17T02:14:27.905Z,5.47
2018-06-17T02:16:56.634Z,6.00
2018-06-17T02:19:25.344Z,5.50
2018-06-17T02:21:54.158Z,5.07
2018-06-17T02:24:23.939Z,5.10
2018-06-17T02:26:52.638Z,5.40
2018-06-17T02:29:21.375Z,6.27
2018-06-17T02:31:50.048Z,5.77
2018-06-17T02:34:18.721Z,5.03
2018-06-17T02:36:47.418Z,5.80
2018-06-17T02:39:16.091Z,5.60
2018-06-17T02:41:44.811Z,4.83
2018-06-17T02:44:33.799Z,5.80
2018-06-17T02:47:07.912Z,5.43
2018-06-17T02:49:39.153Z,4.47
2018-06-17T02:52:14.059Z,4.90
2018-06-17T02:54:43.863Z,5.30
2018-06-17T02:57:13.726Z,4.87
2018-06-17T02:59:43.117Z,5.00
2018-06-17T03:02:12.308Z,5.10
2018-06-17T03:04:41.012Z,5.13
2018-06-17T03:07:09.706Z,5.37
2018-06-17T03:09:38.425Z,4.87
2018-06-17T03:12:07.302Z,5.30
2018-06-17T03:14:36.002Z,4.97
2018-06-17T03:17:04.751Z,4.73
2018-06-17T03:19:33.469Z,4.97
2018-06-17T03:22:02.178Z,4.87
2018-06-17T03:24:36.162Z,4.40
2018-06-17T03:27:10.118Z,4.50
2018-06-17T03:29:44.002Z,5.03
2018-06-17T03:32:17.843Z,4.97
2018-06-17T03:34:50.700Z,4.30
2018-06-17T03:37:19.393Z,4.57
2018-06-17T03:39:48.128Z,4.40
2018-06-17T03:42:16.823Z,4.73
2018-06-17T03:44:45.510Z,4.60
2018-06-17T03:47:14.181Z,4.30
2018-06-17T03:49:52.801Z,3.93
2018-06-17T03:52:25.180Z,4.50
2018-06-17T03:54:53.878Z,4.60
2018-06-17T03:57:22.553Z,4.90
2018-06-17T03:59:51.258Z,5.10
2018-06-17T04:02:21.429Z,5.20
2018-06-17T04:04:55.430Z,5.63
2018-06-17T04:07:24.143Z,4.57
2018-06-17T04:09:52.814Z,4.70
2018-06-17T04:12:21.475Z,5.37
2018-06-17T04:14:50.177Z,4.77
2018-06-17T04:17:18.856Z,5.70
2018-06-17T04:19:47.544Z,4.97
2018-06-17T04:22:19.632Z,5.20
2018-06-17T04:24:48.325Z,5.47
2018-06-17T04:27:16.971Z,4.90
2018-06-17T04:29:45.680Z,4.60
2018-06-17T04:32:14.404Z,4.90
2018-06-17T04:34:43.115Z,4.67
2018-06-17T04:37:11.807Z,4.70
2018-06-17T04:39:40.494Z,4.97
2018-06-17T04:42:09.160Z,4.77
2018-06-17T04:44:37.872Z,4.73
2018-06-17T04:47:06.545Z,5.23
2018-06-17T04:52:28.227Z,4.40
2018-06-17T04:54:56.931Z,5.10
2018-06-17T04:57:25.626Z,5.23
2018-06-17T04:59:54.369Z,4.80
2018-06-17T05:02:23.062Z,4.93
2018-06-17T05:04:51.771Z,4.00
2018-06-17T05:07:20.468Z,4.73
2018-06-17T05:09:50.162Z,4.60
2018-06-17T05:12:18.863Z,4.80
2018-06-17T05:14:47.575Z,4.37
2018-06-17T05:17:16.270Z,4.00
2018-06-17T05:19:44.986Z,4.70
2018-06-17T05:22:14.741Z,4.50
2018-06-17T05:24:43.443Z,4.70
2018-06-17T05:27:12.137Z,4.50
2018-06-17T05:29:40.827Z,5.03
2018-06-17T05:32:10.678Z,4.90
2018-06-17T05:34:39.371Z,4.50
2018-06-17T05:37:08.148Z,4.57
2018-06-17T05:39:43.443Z,4.50
2018-06-17T05:42:25.646Z,5.50
2018-06-17T05:44:57.642Z,5.80
2018-06-17T05:47:26.389Z,4.83
2018-06-17T05:49:55.126Z,5.10
2018-06-17T05:52:23.814Z,4.93
2018-06-17T05:54:52.525Z,5.43
2018-06-17T05:57:21.494Z,5.77
2018-06-17T05:59:58.127Z,5.80
2018-06-17T06:02:41.021Z,5.57
2018-06-17T06:05:09.727Z,5.53
2018-06-17T06:07:38.605Z,6.00
2018-06-17T06:10:13.184Z,6.80
2018-06-17T06:12:41.922Z,5.43
2018-06-17T06:15:11.672Z,6.00
2018-06-17T06:17:40.476Z,6.13
2018-06-17T06:20:10.268Z,5.83
2018-06-17T06:22:44.547Z,6.30
2018-06-17T06:25:13.325Z,5.70
2018-06-17T06:27:42.082Z,5.80
2018-06-17T06:30:10.777Z,5.43
2018-06-17T06:32:40.590Z,6.13
2018-06-17T06:35:23.963Z,5.47
2018-06-17T06:41:04.635Z,5.93
2018-06-17T06:43:33.682Z,5.40
2018-06-17T06:46:08.636Z,6.07
2018-06-17T06:48:37.370Z,5.50
2018-06-17T06:51:12.790Z,5.60
2018-06-17T06:53:41.473Z,5.20
2018-06-17T06:56:10.359Z,5.07
2018-06-17T06:58:39.077Z,5.43
2018-06-17T07:04:13.092Z,4.93
2018-06-17T07:06:53.039Z,5.00
2018-06-17T07:09:33.550Z,4.70
2018-06-17T07:12:02.839Z,5.00
2018-06-17T07:14:31.573Z,4.77
2018-06-17T07:17:13.454Z,4.87
2018-06-17T07:19:42.170Z,5.40
2018-06-17T07:22:10.804Z,4.40
2018-06-17T07:24:40.066Z,4.50
2018-06-17T07:27:20.005Z,4.63
2018-06-17T07:41:25.469Z,4.90
2018-06-17T07:43:54.489Z,5.00
2018-06-17T07:46:23.179Z,4.80
2018-06-17T07:49:29.478Z,4.93
2018-06-17T07:52:10.426Z,5.27
2018-06-17T07:54:49.627Z,4.87
2018-06-17T07:57:19.522Z,5.40
2018-06-17T07:59:48.185Z,4.60
2018-06-17T08:02:17.119Z,4.63
2018-06-17T08:04:45.459Z,4.70
2018-06-17T08:07:20.967Z,5.07
2018-06-17T08:09:49.718Z,4.40
2018-06-17T08:12:18.413Z,4.27
2018-06-17T08:14:46.853Z,4.60
2018-06-17T08:17:15.521Z,3.83
2018-06-17T08:19:44.269Z,5.20
2018-06-17T08:22:12.966Z,4.43
2018-06-17T08:24:51.498Z,4.13
2018-06-17T08:27:32.278Z,4.33
2018-06-17T08:30:00.994Z,4.23
2018-06-17T08:32:29.673Z,3.90
2018-06-17T08:35:08.932Z,4.17
2018-06-17T08:37:37.624Z,4.03
2018-06-17T08:40:06.374Z,4.30
2018-06-17T08:42:35.051Z,4.77
2018-06-17T08:45:07.617Z,3.90
2018-06-17T08:47:36.315Z,4.30
2018-06-17T08:50:05.057Z,4.53
2018-06-17T08:52:33.812Z,4.50
2018-06-17T08:55:02.483Z,4.13
2018-06-17T08:57:31.244Z,3.90
2018-06-17T09:02:55.406Z,3.73
2018-06-17T09:05:27.799Z,3.60
2018-06-17T09:07:57.472Z,3.83
2018-06-17T09:10:26.163Z,3.87
2018-06-17T09:12:54.847Z,3.67
2018-06-17T09:15:24.143Z,4.00
2018-06-17T09:17:53.361Z,4.20
2018-06-17T09:20:22.619Z,4.00
2018-06-17T09:23:05.125Z,4.37
2018-06-17T09:25:39.261Z,4.00
2018-06-17T09:28:08.014Z,3.90
2018-06-17T09:30:36.855Z,4.50
2018-06-17T09:33:05.649Z,4.60
2018-06-17T09:35:38.731Z,5.03
2018-06-17T09:38:07.478Z,4.30
2018-06-17T09:40:36.129Z,4.50
2018-06-17T09:43:24.733Z,4.10
2018-06-17T09:45:56.529Z,4.77
2018-06-17T09:48:25.282Z,5.30
2018-06-17T09:50:59.575Z,4.43
2018-06-17T09:53:28.324Z,4.60
2018-06-17T09:56:05.264Z,4.50
2018-06-17T09:58:43.847Z,4.90
2018-06-17T10:01:17.530Z,4.40
2018-06-17T10:03:46.540Z,4.60
2018-06-17T10:06:15.399Z,4.60
2018-06-17T10:08:44.205Z,4.80
2018-06-17T10:11:29.075Z,4.30
2018-06-17T10:14:16.835Z,4.57
2018-06-17T10:16:57.977Z,3.83
2018-06-17T10:19:26.765Z,3.80
2018-06-17T10:24:50.733Z,4.03
2018-06-17T10:27:19.514Z,4.50
2018-06-17T10:29:48.413Z,3.67
2018-06-17T10:32:18.166Z,4.20
2018-06-17T10:34:47.130Z,3.73
2018-06-17T10:37:15.849Z,4.03
2018-06-17T10:40:04.221Z,4.10
2018-06-17T10:42:32.906Z,3.80
2018-06-17T10:45:23.915Z,4.67
2018-06-17T10:48:08.686Z,3.80
2018-06-17T10:50:56.407Z,4.07
2018-06-17T10:53:25.146Z,3.93
2018-06-17T10:55:53.991Z,4.43
2018-06-17T10:58:22.588Z,4.30
2018-06-17T11:00:51.304Z,4.10
2018-06-17T11:03:20.073Z,5.27
2018-06-17T11:05:48.773Z,6.70
2018-06-17T11:08:17.553Z,3.83
2018-06-17T11:10:46.267Z,3.10
2018-06-17T11:13:15.025Z,5.50
2018-06-17T11:21:32.516Z,4.50
2018-06-17T11:24:01.199Z,3.97
2018-06-17T11:26:29.929Z,4.33
2018-06-17T11:28:58.654Z,4.37
2018-06-17T11:31:27.343Z,4.40
2018-06-17T11:33:55.755Z,4.03
2018-06-17T11:36:24.431Z,4.07
2018-06-17T11:38:53.324Z,4.30
2018-06-17T11:41:22.228Z,4.80
2018-06-17T11:43:51.565Z,4.33
2018-06-17T11:46:20.309Z,4.10
2018-06-17T11:48:54.711Z,4.20
2018-06-17T11:51:36.213Z,4.23
2018-06-17T11:54:04.885Z,4.37
2018-06-17T11:56:33.630Z,3.63
2018-06-17T11:59:08.955Z,4.40
2018-06-17T12:01:39.954Z,3.90
2018-06-17T12:04:12.571Z,4.40
2018-06-17T12:06:58.495Z,4.17
2018-06-17T12:09:27.416Z,5.57
2018-06-17T12:11:56.212Z,3.77
2018-06-17T12:14:26.586Z,3.90
2018-06-17T12:16:55.479Z,4.10
2018-06-17T12:19:30.838Z,4.50
2018-06-17T12:21:59.563Z,8.50
2018-06-17T12:24:28.396Z,4.70
2018-06-17T12:26:57.254Z,8.50
2018-06-17T12:29:26.135Z,4.23
2018-06-17T12:31:54.972Z,4.00
2018-06-17T12:34:23.262Z,4.20
2018-06-17T12:36:58.354Z,3.97
2018-06-17T12:39:30.892Z,4.37
2018-06-17T12:41:59.744Z,4.03
2018-06-17T12:44:28.418Z,4.77
2018-06-17T12:46:57.098Z,4.10
2018-06-17T12:49:25.771Z,4.43
2018-06-17T12:51:54.520Z,4.00
2018-06-17T12:54:23.195Z,4.07
2018-06-17T12:56:51.953Z,4.40
2018-06-17T12:59:20.619Z,3.57
2018-06-17T13:01:49.473Z,3.47
2018-06-17T13:04:18.168Z,4.03
2018-06-17T13:06:46.908Z,4.03
2018-06-17T13:09:15.562Z,3.80
2018-06-17T13:11:44.296Z,4.33
2018-06-17T13:14:13.024Z,3.33
2018-06-17T13:19:52.303Z,3.33
2018-06-17T13:22:21.009Z,3.70
2018-06-17T13:24:49.697Z,3.20
2018-06-17T13:27:18.643Z,3.13
2018-06-17T13:29:47.322Z,3.30
2018-06-17T13:35:31.118Z,3.40
2018-06-17T13:37:59.834Z,3.23
2018-06-17T13:40:28.542Z,3.50
2018-06-17T13:42:57.263Z,3.87
2018-06-17T13:45:25.934Z,4.07
2018-06-17T13:50:52.881Z,3.10
2018-06-17T13:53:38.448Z,3.07
2018-06-17T13:56:07.350Z,3.20
2018-06-17T13:58:41.073Z,3.23
2018-06-17T14:01:09.769Z,3.17
2018-06-17T14:03:56.698Z,3.60
2018-06-17T14:06:25.371Z,3.23
2018-06-17T14:08:54.045Z,3.30
2018-06-17T14:11:44.875Z,3.50
2018-06-17T14:14:13.560Z,3.50
2018-06-17T14:19:47.090Z,4.03
2018-06-17T14:22:15.821Z,3.80
2018-06-17T14:24:44.522Z,3.27
2018-06-17T14:27:13.309Z,4.63
2018-06-17T14:29:42.027Z,3.70
2018-06-17T14:32:24.864Z,3.53
2018-06-17T14:34:53.674Z,3.40
2018-06-17T14:37:22.560Z,3.40
2018-06-17T14:39:51.045Z,4.30
2018-06-17T14:43:22.672Z,3.90
2018-06-17T14:46:01.518Z,3.50
2018-06-17T14:51:30.016Z,3.97
2018-06-17T14:53:58.340Z,3.97
2018-06-17T14:56:27.455Z,4.03
2018-06-17T15:01:51.895Z,5.10
2018-06-17T15:04:21.624Z,4.33
2018-06-17T15:06:50.294Z,3.93
2018-06-17T15:09:19.083Z,3.67
2018-06-17T15:11:47.855Z,3.50
2018-06-17T15:14:16.883Z,3.93
2018-06-17T15:16:49.737Z,4.00
2018-06-17T15:19:18.524Z,3.73
2018-06-17T15:21:47.206Z,4.27
2018-06-17T15:24:15.898Z,4.30
2018-06-17T15:26:44.598Z,4.10
2018-06-17T15:29:13.350Z,3.87
2018-06-17T15:31:47.234Z,3.30
2018-06-17T15:34:21.035Z,4.40
2018-06-17T15:36:55.014Z,3.83
2018-06-17T15:39:28.922Z,4.67
2018-06-17T15:41:57.806Z,4.00
2018-06-17T15:44:26.481Z,3.70
2018-06-17T15:46:55.219Z,4.03
2018-06-17T15:49:24.484Z,4.10
2018-06-17T15:51:53.172Z,4.13
2018-06-17T15:54:21.956Z,4.00
2018-06-17T15:56:50.718Z,4.70
2018-06-17T15:59:20.180Z,4.27
2018-06-17T16:01:48.942Z,3.97
2018-06-17T16:04:17.610Z,4.30
2018-06-17T16:06:46.388Z,3.70
2018-06-17T16:09:15.125Z,3.80
2018-06-17T16:11:49.072Z,4.40
2018-06-17T16:14:22.994Z,3.60
2018-06-17T16:16:57.116Z,3.77
2018-06-17T16:19:31.125Z,4.20
2018-06-17T16:21:59.996Z,4.93
2018-06-17T16:24:28.665Z,4.20
2018-06-17T16:26:57.353Z,4.40
2018-06-17T16:29:42.199Z,4.40
2018-06-17T16:32:10.930Z,4.27
2018-06-17T16:34:39.634Z,4.20
2018-06-17T16:37:08.416Z,4.00
2018-06-17T16:39:37.133Z,4.93
2018-06-17T16:42:05.952Z,4.43
2018-06-17T16:44:34.650Z,3.90
2018-06-17T16:47:03.347Z,4.37
2018-06-17T16:49:32.082Z,4.40
2018-06-17T16:53:09.970Z,4.70
2018-06-17T16:55:54.902Z,4.40
2018-06-17T16:58:32.026Z,5.90
2018-06-17T17:01:00.759Z,5.40
2018-06-17T17:03:31.437Z,5.00
2018-06-17T17:06:00.135Z,4.23
2018-06-17T17:08:28.817Z,4.33
2018-06-17T17:10:57.541Z,3.63
2018-06-17T17:13:26.518Z,4.43
2018-06-17T17:15:55.295Z,3.87
2018-06-17T17:18:30.530Z,4.97
2018-06-17T17:23:58.270Z,5.70
2018-06-17T17:26:26.943Z,4.90
2018-06-17T17:28:57.763Z,4.77
2018-06-17T17:31:30.698Z,5.23
2018-06-17T17:34:04.799Z,6.50
2018-06-17T17:36:38.678Z,4.83
2018-06-17T17:39:13.288Z,4.60
2018-06-17T17:41:41.946Z,4.10
2018-06-17T17:44:10.604Z,4.57
2018-06-17T17:46:44.604Z,3.70
2018-06-17T17:49:20.101Z,3.90
2018-06-17T17:51:48.843Z,3.70
2018-06-17T17:54:17.601Z,3.87
2018-06-17T17:59:39.296Z,4.07
2018-06-17T18:02:07.998Z,4.30
2018-06-17T18:04:36.830Z,4.13
2018-06-17T18:07:21.994Z,4.80
2018-06-17T18:10:00.414Z,4.40
2018-06-17T18:12:29.102Z,4.50
2018-06-17T18:15:00.753Z,5.07
2018-06-17T18:17:29.583Z,3.90
2018-06-17T18:20:11.432Z,4.10
2018-06-17T18:22:40.162Z,4.63
2018-06-17T18:26:20.097Z,4.37
2018-06-17T18:28:54.337Z,4.00
2018-06-17T18:31:24.146Z,4.37
2018-06-17T18:34:04.254Z,4.30
2018-06-17T18:36:35.280Z,4.50
2018-06-17T18:39:08.483Z,3.80
2018-06-17T18:41:38.126Z,4.10
2018-06-17T18:44:07.397Z,4.47
2018-06-17T18:46:38.321Z,4.10
2018-06-17T18:49:07.287Z,4.00
2018-06-17T18:51:41.474Z,3.83
2018-06-17T18:54:11.499Z,3.87
2018-06-17T18:56:42.198Z,4.37
2018-06-17T18:59:10.934Z,4.07
2018-06-17T19:01:41.434Z,3.87
2018-06-17T19:04:13.971Z,4.50
2018-06-17T19:06:43.935Z,4.17
2018-06-17T19:09:18.981Z,3.90
2018-06-17T19:11:53.661Z,4.47
2018-06-17T19:14:33.245Z,4.30
2018-06-17T19:17:10.442Z,4.07
2018-06-17T19:19:40.564Z,3.67
2018-06-17T19:22:12.998Z,4.13
2018-06-17T19:24:44.434Z,4.73
2018-06-17T19:27:14.038Z,4.90
2018-06-17T19:29:43.718Z,4.13
2018-06-17T19:32:14.335Z,4.13
2018-06-17T19:34:50.924Z,4.13
2018-06-17T19:37:21.914Z,4.20
2018-06-17T19:39:51.933Z,4.47
2018-06-17T19:42:30.153Z,3.70
2018-06-17T19:45:00.899Z,3.40
2018-06-17T19:47:29.715Z,3.77
2018-06-17T19:50:08.920Z,3.97
2018-06-17T19:52:43.103Z,4.50
2018-06-17T19:55:20.914Z,3.90
2018-06-17T19:57:56.378Z,4.47
2018-06-17T20:03:08.672Z,4.00
2018-06-17T20:05:40.019Z,4.00
2018-06-17T20:08:08.931Z,4.40
2018-06-17T20:10:37.614Z,4.80
2018-06-17T20:13:06.346Z,4.23
2018-06-17T20:15:38.590Z,4.53
2018-06-17T20:18:07.258Z,4.33
2018-06-17T20:20:36.013Z,4.23
2018-06-17T20:23:04.715Z,4.53
2018-06-17T20:25:33.426Z,5.20
2018-06-17T20:28:02.244Z,4.50
2018-06-17T20:30:31.017Z,5.03
2018-06-17T20:33:05.465Z,4.17
2018-06-17T20:35:39.500Z,5.10
2018-06-17T20:38:13.479Z,4.90
2018-06-17T20:40:47.394Z,4.57
2018-06-17T20:43:21.416Z,4.40
2018-06-17T20:45:50.200Z,5.23
2018-06-17T20:48:18.930Z,4.73
2018-06-17T20:50:47.778Z,7.73
2018-06-17T20:53:16.515Z,5.10
2018-06-17T20:55:45.248Z,5.27
2018-06-17T21:06:55.458Z,4.83
2018-06-17T21:09:24.181Z,5.70
2018-06-17T21:11:52.910Z,5.10
2018-06-17T21:14:21.589Z,5.40
2018-06-17T21:16:50.346Z,4.73
2018-06-17T21:19:24.509Z,5.37
2018-06-17T21:21:58.459Z,5.70
2018-06-17T21:24:32.255Z,5.90
2018-06-17T21:27:09.350Z,5.80
2018-06-17T21:29:38.090Z,5.60
2018-06-17T21:32:06.778Z,5.60
2018-06-17T21:34:35.513Z,5.40
2018-06-17T21:37:04.386Z,5.70
2018-06-17T21:39:33.193Z,5.70
2018-06-17T21:42:04.088Z,4.90
2018-06-17T21:44:32.846Z,5.27
2018-06-17T21:47:01.675Z,4.87
2018-06-17T21:49:30.609Z,5.40
2018-06-17T21:51:59.315Z,5.40
2018-06-17T21:54:28.028Z,5.40
2018-06-17T21:56:56.752Z,5.17
2018-06-17T21:59:25.440Z,5.50
2018-06-17T22:01:54.215Z,4.90
2018-06-17T22:04:28.129Z,5.10
2018-06-17T22:06:56.894Z,5.37
2018-06-17T22:09:31.001Z,5.50
2018-06-17T22:12:05.022Z,5.50
2018-06-17T22:14:39.009Z,5.87
2018-06-17T22:17:12.938Z,6.33
2018-06-17T22:19:41.680Z,5.13
2018-06-17T22:22:10.422Z,5.63
2018-06-17T22:24:39.121Z,5.37
2018-06-17T22:27:07.792Z,5.10
2018-06-17T22:29:36.512Z,5.23
2018-06-17T22:32:05.372Z,5.20
2018-06-17T22:34:34.125Z,5.50
2018-06-17T22:37:02.828Z,6.23
2018-06-17T22:39:31.562Z,6.20
2018-06-17T22:42:00.286Z,5.80
2018-06-17T22:44:28.960Z,5.70
2018-06-17T22:46:57.706Z,6.40
2018-06-17T22:49:29.634Z,5.60
2018-06-17T22:51:58.330Z,5.83
2018-06-17T22:54:38.235Z,5.80
2018-06-17T22:57:12.267Z,5.63
2018-06-17T22:59:46.306Z,5.67
2018-06-17T23:02:20.485Z,5.97
2018-06-17T23:04:54.595Z,5.93
2018-06-17T23:07:28.592Z,6.30
2018-06-17T23:09:57.347Z,6.00
2018-06-17T23:12:26.041Z,6.73
2018-06-17T23:14:54.745Z,5.93
2018-06-17T23:17:23.426Z,5.37
2018-06-17T23:19:52.219Z,6.40
2018-06-17T23:22:21.136Z,5.87
2018-06-17T23:24:49.828Z,6.07
2018-06-17T23:27:18.562Z,5.90
2018-06-17T23:29:47.241Z,6.27
2018-06-17T23:32:16.200Z,6.60
2018-06-17T23:34:44.891Z,5.53
2018-06-17T23:37:13.597Z,6.17
2018-06-17T23:39:42.309Z,5.47
2018-06-17T23:42:10.618Z,6.27
2018-06-17T23:44:39.333Z,6.53
2018-06-17T23:47:13.259Z,5.70
2018-06-17T23:49:47.316Z,5.27
2018-06-17T23:52:21.187Z,6.33
2018-06-17T23:54:55.196Z,6.03
2018-06-17T23:57:23.891Z,6.27
2018-06-17T23:59:52.262Z,6.70
